sensor_id;sensor_type;location;lat;lon;timestamp;P1;durP1;ratioP1;P2;durP2;ratioP2
34136;SDS011;20414;50.860;4.382;2022-09-12T00:02:22;2.47;;;1.58;;
34136;SDS011;20414;50.860;4.382;2022-09-12T00:04:48;2.35;;;1.92;;
34136;SDS011;20414;50.860;4.382;2022-09-12T00:07:13;2.45;;;1.95;;
34136;SDS011;20414;50.860;4.382;2022-09-12T00:09:39;2.20;;;1.98;;
34136;SDS011;20414;50.860;4.382;2022-09-12T00:12:05;2.45;;;1.80;;
34136;SDS011;20414;50.860;4.382;2022-09-12T00:14:31;2.45;;;1.95;;
34136;SDS011;20414;50.860;4.382;2022-09-12T00:16:58;2.20;;;1.92;;
34136;SDS011;20414;50.860;4.382;2022-09-12T00:19:29;2.03;;;1.60;;
34136;SDS011;20414;50.860;4.382;2022-09-12T00:21:55;2.40;;;1.92;;
34136;SDS011;20414;50.860;4.382;2022-09-12T00:24:21;2.25;;;1.70;;
34136;SDS011;20414;50.860;4.382;2022-09-12T00:26:47;3.88;;;1.90;;
34136;SDS011;20414;50.860;4.382;2022-09-12T00:29:16;2.78;;;1.85;;
34136;SDS011;20414;50.860;4.382;2022-09-12T00:31:44;2.28;;;1.73;;
34136;SDS011;20414;50.860;4.382;2022-09-12T00:34:10;2.33;;;1.98;;
34136;SDS011;20414;50.860;4.382;2022-09-12T00:36:36;2.05;;;1.67;;
34136;SDS011;20414;50.860;4.382;2022-09-12T00:39:03;2.65;;;1.83;;
34136;SDS011;20414;50.860;4.382;2022-09-12T00:41:31;2.45;;;1.70;;
34136;SDS011;20414;50.860;4.382;2022-09-12T00:44:00;1.70;;;1.60;;
34136;SDS011;20414;50.860;4.382;2022-09-12T00:46:53;1.83;;;1.50;;
34136;SDS011;20414;50.860;4.382;2022-09-12T00:54:31;2.67;;;1.80;;
34136;SDS011;20414;50.860;4.382;2022-09-12T00:57:13;2.10;;;1.58;;
34136;SDS011;20414;50.860;4.382;2022-09-12T00:59:49;2.05;;;1.50;;
34136;SDS011;20414;50.860;4.382;2022-09-12T01:02:18;2.00;;;1.70;;
34136;SDS011;20414;50.860;4.382;2022-09-12T01:04:45;1.58;;;1.30;;
34136;SDS011;20414;50.860;4.382;2022-09-12T01:07:12;1.85;;;1.63;;
34136;SDS011;20414;50.860;4.382;2022-09-12T01:09:39;2.03;;;1.70;;
34136;SDS011;20414;50.860;4.382;2022-09-12T01:12:07;2.40;;;1.80;;
34136;SDS011;20414;50.860;4.382;2022-09-12T01:14:34;1.70;;;1.50;;
34136;SDS011;20414;50.860;4.382;2022-09-12T01:17:00;1.65;;;1.40;;
34136;SDS011;20414;50.860;4.382;2022-09-12T01:30:21;1.70;;;1.60;;
34136;SDS011;20414;50.860;4.382;2022-09-12T01:38:58;2.00;;;1.30;;
34136;SDS011;20414;50.860;4.382;2022-09-12T01:52:15;2.03;;;1.50;;
34136;SDS011;20414;50.860;4.382;2022-09-12T01:54:48;1.75;;;1.38;;
34136;SDS011;20414;50.860;4.382;2022-09-12T01:57:20;1.50;;;1.38;;
34136;SDS011;20414;50.860;4.382;2022-09-12T01:59:53;1.63;;;1.48;;
34136;SDS011;20414;50.860;4.382;2022-09-12T02:02:32;1.70;;;1.40;;
34136;SDS011;20414;50.860;4.382;2022-09-12T02:05:06;1.65;;;1.50;;
34136;SDS011;20414;50.860;4.382;2022-09-12T02:07:38;1.88;;;1.40;;
34136;SDS011;20414;50.860;4.382;2022-09-12T02:10:18;1.63;;;1.33;;
34136;SDS011;20414;50.860;4.382;2022-09-12T02:15:42;2.00;;;1.40;;
34136;SDS011;20414;50.860;4.382;2022-09-12T02:18:34;1.60;;;1.25;;
34136;SDS011;20414;50.860;4.382;2022-09-12T02:21:15;1.90;;;1.50;;
34136;SDS011;20414;50.860;4.382;2022-09-12T02:23:45;1.40;;;1.20;;
34136;SDS011;20414;50.860;4.382;2022-09-12T02:26:23;1.60;;;1.30;;
34136;SDS011;20414;50.860;4.382;2022-09-12T02:28:53;1.92;;;1.50;;
34136;SDS011;20414;50.860;4.382;2022-09-12T02:34:13;2.00;;;1.50;;
34136;SDS011;20414;50.860;4.382;2022-09-12T02:39:21;1.35;;;1.25;;
34136;SDS011;20414;50.860;4.382;2022-09-12T02:41:49;1.58;;;1.33;;
34136;SDS011;20414;50.860;4.382;2022-09-12T02:44:16;2.00;;;1.30;;
34136;SDS011;20414;50.860;4.382;2022-09-12T02:46:43;1.52;;;1.40;;
34136;SDS011;20414;50.860;4.382;2022-09-12T02:49:14;1.40;;;1.30;;
34136;SDS011;20414;50.860;4.382;2022-09-12T02:51:41;1.48;;;1.33;;
34136;SDS011;20414;50.860;4.382;2022-09-12T02:54:07;1.80;;;1.45;;
34136;SDS011;20414;50.860;4.382;2022-09-12T02:56:34;1.63;;;1.42;;
34136;SDS011;20414;50.860;4.382;2022-09-12T02:59:01;1.35;;;1.17;;
34136;SDS011;20414;50.860;4.382;2022-09-12T03:04:15;1.23;;;1.10;;
34136;SDS011;20414;50.860;4.382;2022-09-12T03:12:29;1.37;;;1.10;;
34136;SDS011;20414;50.860;4.382;2022-09-12T03:15:21;1.52;;;1.25;;
34136;SDS011;20414;50.860;4.382;2022-09-12T03:20:47;1.50;;;1.20;;
34136;SDS011;20414;50.860;4.382;2022-09-12T03:26:12;1.50;;;1.10;;
34136;SDS011;20414;50.860;4.382;2022-09-12T03:28:44;1.38;;;1.20;;
34136;SDS011;20414;50.860;4.382;2022-09-12T03:31:12;1.67;;;1.17;;
34136;SDS011;20414;50.860;4.382;2022-09-12T03:33:40;1.52;;;1.23;;
34136;SDS011;20414;50.860;4.382;2022-09-12T03:36:07;1.15;;;1.02;;
34136;SDS011;20414;50.860;4.382;2022-09-12T03:38:43;1.42;;;1.20;;
34136;SDS011;20414;50.860;4.382;2022-09-12T03:41:09;1.48;;;1.20;;
34136;SDS011;20414;50.860;4.382;2022-09-12T03:43:34;1.33;;;1.20;;
34136;SDS011;20414;50.860;4.382;2022-09-12T03:46:00;1.25;;;1.02;;
34136;SDS011;20414;50.860;4.382;2022-09-12T03:48:26;1.20;;;1.00;;
34136;SDS011;20414;50.860;4.382;2022-09-12T03:50:51;1.23;;;1.13;;
34136;SDS011;20414;50.860;4.382;2022-09-12T03:53:17;1.27;;;1.17;;
34136;SDS011;20414;50.860;4.382;2022-09-12T03:55:43;1.67;;;1.20;;
34136;SDS011;20414;50.860;4.382;2022-09-12T03:58:09;1.17;;;1.00;;
34136;SDS011;20414;50.860;4.382;2022-09-12T04:00:34;1.00;;;0.90;;
34136;SDS011;20414;50.860;4.382;2022-09-12T04:03:00;1.25;;;1.13;;
34136;SDS011;20414;50.860;4.382;2022-09-12T04:05:25;1.45;;;1.23;;
34136;SDS011;20414;50.860;4.382;2022-09-12T04:07:51;1.30;;;1.20;;
34136;SDS011;20414;50.860;4.382;2022-09-12T04:10:16;0.95;;;0.85;;
34136;SDS011;20414;50.860;4.382;2022-09-12T04:12:42;1.40;;;1.23;;
34136;SDS011;20414;50.860;4.382;2022-09-12T04:15:08;1.00;;;0.90;;
34136;SDS011;20414;50.860;4.382;2022-09-12T04:17:36;1.10;;;1.00;;
34136;SDS011;20414;50.860;4.382;2022-09-12T04:20:01;1.17;;;1.08;;
34136;SDS011;20414;50.860;4.382;2022-09-12T04:22:27;1.10;;;1.00;;
34136;SDS011;20414;50.860;4.382;2022-09-12T04:24:55;1.38;;;1.20;;
34136;SDS011;20414;50.860;4.382;2022-09-12T04:27:21;1.33;;;1.10;;
34136;SDS011;20414;50.860;4.382;2022-09-12T04:29:47;1.45;;;1.02;;
34136;SDS011;20414;50.860;4.382;2022-09-12T04:32:13;2.13;;;1.00;;
34136;SDS011;20414;50.860;4.382;2022-09-12T04:34:39;1.20;;;1.10;;
34136;SDS011;20414;50.860;4.382;2022-09-12T04:37:04;1.25;;;1.02;;
34136;SDS011;20414;50.860;4.382;2022-09-12T04:39:30;0.95;;;0.90;;
34136;SDS011;20414;50.860;4.382;2022-09-12T04:41:56;1.95;;;1.10;;
34136;SDS011;20414;50.860;4.382;2022-09-12T04:44:21;1.10;;;0.90;;
34136;SDS011;20414;50.860;4.382;2022-09-12T04:46:47;1.10;;;1.00;;
34136;SDS011;20414;50.860;4.382;2022-09-12T04:49:13;1.08;;;0.88;;
34136;SDS011;20414;50.860;4.382;2022-09-12T04:51:40;1.30;;;1.13;;
34136;SDS011;20414;50.860;4.382;2022-09-12T04:54:09;1.00;;;0.90;;
34136;SDS011;20414;50.860;4.382;2022-09-12T04:56:37;1.35;;;1.17;;
34136;SDS011;20414;50.860;4.382;2022-09-12T04:59:05;1.05;;;0.95;;
34136;SDS011;20414;50.860;4.382;2022-09-12T05:01:31;1.10;;;1.00;;
34136;SDS011;20414;50.860;4.382;2022-09-12T05:03:57;1.15;;;1.00;;
34136;SDS011;20414;50.860;4.382;2022-09-12T05:06:25;0.70;;;0.63;;
34136;SDS011;20414;50.860;4.382;2022-09-12T05:08:52;1.10;;;1.00;;
34136;SDS011;20414;50.860;4.382;2022-09-12T05:11:21;1.00;;;0.90;;
34136;SDS011;20414;50.860;4.382;2022-09-12T05:13:48;1.05;;;0.95;;
34136;SDS011;20414;50.860;4.382;2022-09-12T05:16:15;1.20;;;0.93;;
34136;SDS011;20414;50.860;4.382;2022-09-12T05:18:44;1.15;;;1.00;;
34136;SDS011;20414;50.860;4.382;2022-09-12T05:21:12;0.90;;;0.82;;
34136;SDS011;20414;50.860;4.382;2022-09-12T05:23:39;1.00;;;0.90;;
34136;SDS011;20414;50.860;4.382;2022-09-12T05:26:05;0.80;;;0.80;;
34136;SDS011;20414;50.860;4.382;2022-09-12T05:28:33;1.25;;;0.88;;
34136;SDS011;20414;50.860;4.382;2022-09-12T05:33:28;1.20;;;0.95;;
34136;SDS011;20414;50.860;4.382;2022-09-12T05:35:54;0.80;;;0.80;;
34136;SDS011;20414;50.860;4.382;2022-09-12T05:38:19;0.93;;;0.90;;
34136;SDS011;20414;50.860;4.382;2022-09-12T05:40:45;1.45;;;0.80;;
34136;SDS011;20414;50.860;4.382;2022-09-12T05:43:11;0.80;;;0.80;;
34136;SDS011;20414;50.860;4.382;2022-09-12T05:45:37;1.10;;;1.00;;
34136;SDS011;20414;50.860;4.382;2022-09-12T05:48:03;0.70;;;0.70;;
34136;SDS011;20414;50.860;4.382;2022-09-12T05:50:29;1.30;;;0.93;;
34136;SDS011;20414;50.860;4.382;2022-09-12T05:52:55;1.30;;;0.80;;
34136;SDS011;20414;50.860;4.382;2022-09-12T05:55:21;0.70;;;0.70;;
34136;SDS011;20414;50.860;4.382;2022-09-12T05:57:48;1.13;;;0.82;;
34136;SDS011;20414;50.860;4.382;2022-09-12T06:00:15;1.25;;;1.00;;
34136;SDS011;20414;50.860;4.382;2022-09-12T06:02:42;1.00;;;0.90;;
34136;SDS011;20414;50.860;4.382;2022-09-12T06:05:08;0.80;;;0.70;;
34136;SDS011;20414;50.860;4.382;2022-09-12T06:07:34;0.82;;;0.82;;
34136;SDS011;20414;50.860;4.382;2022-09-12T06:10:00;0.80;;;0.80;;
34136;SDS011;20414;50.860;4.382;2022-09-12T06:12:29;1.00;;;0.77;;
34136;SDS011;20414;50.860;4.382;2022-09-12T06:14:55;0.93;;;0.88;;
34136;SDS011;20414;50.860;4.382;2022-09-12T06:17:21;0.85;;;0.80;;
34136;SDS011;20414;50.860;4.382;2022-09-12T06:19:47;1.13;;;1.00;;
34136;SDS011;20414;50.860;4.382;2022-09-12T06:22:15;0.80;;;0.80;;
34136;SDS011;20414;50.860;4.382;2022-09-12T06:24:42;1.02;;;0.82;;
34136;SDS011;20414;50.860;4.382;2022-09-12T06:27:08;1.00;;;0.80;;
34136;SDS011;20414;50.860;4.382;2022-09-12T06:29:34;0.80;;;0.80;;
34136;SDS011;20414;50.860;4.382;2022-09-12T06:31:59;1.10;;;0.90;;
34136;SDS011;20414;50.860;4.382;2022-09-12T06:34:25;0.80;;;0.77;;
34136;SDS011;20414;50.860;4.382;2022-09-12T06:36:51;1.00;;;0.90;;
34136;SDS011;20414;50.860;4.382;2022-09-12T06:39:20;0.70;;;0.70;;
34136;SDS011;20414;50.860;4.382;2022-09-12T06:41:50;1.00;;;0.90;;
34136;SDS011;20414;50.860;4.382;2022-09-12T06:44:17;1.25;;;0.82;;
34136;SDS011;20414;50.860;4.382;2022-09-12T06:46:45;1.42;;;0.80;;
34136;SDS011;20414;50.860;4.382;2022-09-12T06:49:11;0.85;;;0.80;;
34136;SDS011;20414;50.860;4.382;2022-09-12T06:51:37;0.85;;;0.70;;
34136;SDS011;20414;50.860;4.382;2022-09-12T06:54:03;0.98;;;0.90;;
34136;SDS011;20414;50.860;4.382;2022-09-12T06:56:29;0.70;;;0.70;;
34136;SDS011;20414;50.860;4.382;2022-09-12T06:58:56;0.80;;;0.80;;
34136;SDS011;20414;50.860;4.382;2022-09-12T07:01:24;0.90;;;0.90;;
34136;SDS011;20414;50.860;4.382;2022-09-12T07:03:53;1.00;;;0.90;;
34136;SDS011;20414;50.860;4.382;2022-09-12T07:06:24;0.77;;;0.70;;
34136;SDS011;20414;50.860;4.382;2022-09-12T07:08:56;0.85;;;0.85;;
34136;SDS011;20414;50.860;4.382;2022-09-12T07:11:24;0.80;;;0.80;;
34136;SDS011;20414;50.860;4.382;2022-09-12T07:13:52;1.00;;;0.90;;
34136;SDS011;20414;50.860;4.382;2022-09-12T07:16:20;0.82;;;0.80;;
34136;SDS011;20414;50.860;4.382;2022-09-12T07:18:52;0.77;;;0.73;;
34136;SDS011;20414;50.860;4.382;2022-09-12T07:21:19;0.95;;;0.70;;
34136;SDS011;20414;50.860;4.382;2022-09-12T07:23:45;0.70;;;0.50;;
34136;SDS011;20414;50.860;4.382;2022-09-12T07:26:12;0.77;;;0.70;;
34136;SDS011;20414;50.860;4.382;2022-09-12T07:28:39;0.70;;;0.70;;
34136;SDS011;20414;50.860;4.382;2022-09-12T07:33:36;0.80;;;0.80;;
34136;SDS011;20414;50.860;4.382;2022-09-12T07:36:03;0.95;;;0.88;;
34136;SDS011;20414;50.860;4.382;2022-09-12T07:38:29;1.33;;;0.80;;
34136;SDS011;20414;50.860;4.382;2022-09-12T07:40:55;0.70;;;0.52;;
34136;SDS011;20414;50.860;4.382;2022-09-12T07:43:21;0.60;;;0.52;;
34136;SDS011;20414;50.860;4.382;2022-09-12T07:45:47;0.82;;;0.82;;
34136;SDS011;20414;50.860;4.382;2022-09-12T07:48:12;0.88;;;0.73;;
34136;SDS011;20414;50.860;4.382;2022-09-12T07:50:38;0.77;;;0.77;;
34136;SDS011;20414;50.860;4.382;2022-09-12T07:53:04;0.60;;;0.60;;
34136;SDS011;20414;50.860;4.382;2022-09-12T07:55:30;0.60;;;0.60;;
34136;SDS011;20414;50.860;4.382;2022-09-12T07:57:56;1.20;;;0.80;;
34136;SDS011;20414;50.860;4.382;2022-09-12T08:00:22;0.75;;;0.65;;
34136;SDS011;20414;50.860;4.382;2022-09-12T08:02:51;0.80;;;0.70;;
34136;SDS011;20414;50.860;4.382;2022-09-12T08:05:18;0.88;;;0.73;;
34136;SDS011;20414;50.860;4.382;2022-09-12T08:07:47;1.05;;;0.82;;
34136;SDS011;20414;50.860;4.382;2022-09-12T08:10:13;0.85;;;0.70;;
34136;SDS011;20414;50.860;4.382;2022-09-12T08:12:40;0.70;;;0.70;;
34136;SDS011;20414;50.860;4.382;2022-09-12T08:15:05;0.90;;;0.70;;
34136;SDS011;20414;50.860;4.382;2022-09-12T08:17:32;0.60;;;0.60;;
34136;SDS011;20414;50.860;4.382;2022-09-12T08:19:58;0.70;;;0.70;;
34136;SDS011;20414;50.860;4.382;2022-09-12T08:22:23;0.50;;;0.50;;
34136;SDS011;20414;50.860;4.382;2022-09-12T08:24:49;1.00;;;0.75;;
34136;SDS011;20414;50.860;4.382;2022-09-12T08:27:15;0.50;;;0.50;;
34136;SDS011;20414;50.860;4.382;2022-09-12T08:29:41;0.90;;;0.68;;
34136;SDS011;20414;50.860;4.382;2022-09-12T08:32:07;0.93;;;0.70;;
34136;SDS011;20414;50.860;4.382;2022-09-12T08:34:33;0.50;;;0.45;;
34136;SDS011;20414;50.860;4.382;2022-09-12T08:36:59;0.85;;;0.70;;
34136;SDS011;20414;50.860;4.382;2022-09-12T08:39:24;0.70;;;0.70;;
34136;SDS011;20414;50.860;4.382;2022-09-12T08:42:13;0.70;;;0.63;;
34136;SDS011;20414;50.860;4.382;2022-09-12T08:47:32;0.70;;;0.70;;
34136;SDS011;20414;50.860;4.382;2022-09-12T08:55:26;0.93;;;0.77;;
34136;SDS011;20414;50.860;4.382;2022-09-12T08:58:00;0.98;;;0.77;;
34136;SDS011;20414;50.860;4.382;2022-09-12T09:03:35;0.70;;;0.70;;
34136;SDS011;20414;50.860;4.382;2022-09-12T09:06:39;0.70;;;0.60;;
34136;SDS011;20414;50.860;4.382;2022-09-12T09:12:59;0.63;;;0.63;;
34136;SDS011;20414;50.860;4.382;2022-09-12T09:15:42;0.60;;;0.60;;
34136;SDS011;20414;50.860;4.382;2022-09-12T09:18:22;1.33;;;0.80;;
34136;SDS011;20414;50.860;4.382;2022-09-12T09:20:56;0.80;;;0.80;;
34136;SDS011;20414;50.860;4.382;2022-09-12T09:23:43;0.80;;;0.80;;
34136;SDS011;20414;50.860;4.382;2022-09-12T09:26:24;2.38;;;0.60;;
34136;SDS011;20414;50.860;4.382;2022-09-12T09:28:54;0.63;;;0.57;;
34136;SDS011;20414;50.860;4.382;2022-09-12T09:31:27;1.08;;;0.65;;
34136;SDS011;20414;50.860;4.382;2022-09-12T09:33:58;2.13;;;0.80;;
34136;SDS011;20414;50.860;4.382;2022-09-12T09:44:27;0.88;;;0.65;;
34136;SDS011;20414;50.860;4.382;2022-09-12T09:46:54;0.70;;;0.65;;
34136;SDS011;20414;50.860;4.382;2022-09-12T09:49:24;0.80;;;0.80;;
34136;SDS011;20414;50.860;4.382;2022-09-12T09:51:55;1.42;;;0.70;;
34136;SDS011;20414;50.860;4.382;2022-09-12T09:56:53;0.88;;;0.70;;
34136;SDS011;20414;50.860;4.382;2022-09-12T09:59:29;0.93;;;0.60;;
34136;SDS011;20414;50.860;4.382;2022-09-12T10:01:56;1.75;;;0.70;;
34136;SDS011;20414;50.860;4.382;2022-09-12T10:04:29;0.82;;;0.70;;
34136;SDS011;20414;50.860;4.382;2022-09-12T10:07:01;3.03;;;0.80;;
34136;SDS011;20414;50.860;4.382;2022-09-12T10:09:29;0.60;;;0.60;;
34136;SDS011;20414;50.860;4.382;2022-09-12T10:11:59;0.70;;;0.70;;
34136;SDS011;20414;50.860;4.382;2022-09-12T10:14:43;0.63;;;0.60;;
34136;SDS011;20414;50.860;4.382;2022-09-12T10:19:53;0.60;;;0.60;;
34136;SDS011;20414;50.860;4.382;2022-09-12T10:22:26;1.23;;;0.70;;
34136;SDS011;20414;50.860;4.382;2022-09-12T10:24:57;0.80;;;0.60;;
34136;SDS011;20414;50.860;4.382;2022-09-12T10:27:28;1.17;;;0.77;;
34136;SDS011;20414;50.860;4.382;2022-09-12T10:30:02;1.75;;;0.70;;
34136;SDS011;20414;50.860;4.382;2022-09-12T10:32:35;1.05;;;0.60;;
34136;SDS011;20414;50.860;4.382;2022-09-12T10:35:15;0.70;;;0.70;;
34136;SDS011;20414;50.860;4.382;2022-09-12T10:40:29;1.02;;;0.70;;
34136;SDS011;20414;50.860;4.382;2022-09-12T10:43:00;0.80;;;0.70;;
34136;SDS011;20414;50.860;4.382;2022-09-12T10:45:32;0.70;;;0.70;;
34136;SDS011;20414;50.860;4.382;2022-09-12T10:50:46;0.75;;;0.60;;
34136;SDS011;20414;50.860;4.382;2022-09-12T10:53:12;1.35;;;0.77;;
34136;SDS011;20414;50.860;4.382;2022-09-12T10:55:38;1.20;;;0.70;;
34136;SDS011;20414;50.860;4.382;2022-09-12T10:58:12;0.70;;;0.60;;
34136;SDS011;20414;50.860;4.382;2022-09-12T11:00:52;0.60;;;0.60;;
34136;SDS011;20414;50.860;4.382;2022-09-12T11:06:33;0.98;;;0.80;;
34136;SDS011;20414;50.860;4.382;2022-09-12T11:09:14;0.55;;;0.55;;
34136;SDS011;20414;50.860;4.382;2022-09-12T11:17:37;1.10;;;0.80;;
34136;SDS011;20414;50.860;4.382;2022-09-12T11:20:13;0.70;;;0.55;;
34136;SDS011;20414;50.860;4.382;2022-09-12T11:22:57;0.55;;;0.55;;
34136;SDS011;20414;50.860;4.382;2022-09-12T11:30:58;0.75;;;0.70;;
34136;SDS011;20414;50.860;4.382;2022-09-12T11:33:34;0.60;;;0.60;;
34136;SDS011;20414;50.860;4.382;2022-09-12T11:36:04;0.77;;;0.60;;
34136;SDS011;20414;50.860;4.382;2022-09-12T11:38:40;0.57;;;0.57;;
34136;SDS011;20414;50.860;4.382;2022-09-12T11:41:11;0.82;;;0.73;;
34136;SDS011;20414;50.860;4.382;2022-09-12T11:44:10;0.63;;;0.50;;
34136;SDS011;20414;50.860;4.382;2022-09-12T11:46:41;0.60;;;0.60;;
34136;SDS011;20414;50.860;4.382;2022-09-12T11:54:19;0.60;;;0.60;;
34136;SDS011;20414;50.860;4.382;2022-09-12T11:59:31;0.60;;;0.60;;
34136;SDS011;20414;50.860;4.382;2022-09-12T12:02:12;0.70;;;0.60;;
34136;SDS011;20414;50.860;4.382;2022-09-12T12:08:01;0.50;;;0.50;;
34136;SDS011;20414;50.860;4.382;2022-09-12T12:13:02;0.60;;;0.60;;
34136;SDS011;20414;50.860;4.382;2022-09-12T12:15:33;1.33;;;0.70;;
34136;SDS011;20414;50.860;4.382;2022-09-12T12:18:06;0.60;;;0.60;;
34136;SDS011;20414;50.860;4.382;2022-09-12T12:20:39;0.80;;;0.70;;
34136;SDS011;20414;50.860;4.382;2022-09-12T12:23:05;0.70;;;0.60;;
34136;SDS011;20414;50.860;4.382;2022-09-12T12:25:38;0.50;;;0.50;;
34136;SDS011;20414;50.860;4.382;2022-09-12T12:28:14;0.85;;;0.60;;
34136;SDS011;20414;50.860;4.382;2022-09-12T12:31:02;0.60;;;0.50;;
34136;SDS011;20414;50.860;4.382;2022-09-12T12:38:39;0.65;;;0.55;;
34136;SDS011;20414;50.860;4.382;2022-09-12T12:43:43;0.57;;;0.57;;
34136;SDS011;20414;50.860;4.382;2022-09-12T12:46:13;0.85;;;0.60;;
34136;SDS011;20414;50.860;4.382;2022-09-12T12:49:03;0.50;;;0.50;;
34136;SDS011;20414;50.860;4.382;2022-09-12T12:59:43;0.60;;;0.60;;
34136;SDS011;20414;50.860;4.382;2022-09-12T13:05:05;0.82;;;0.50;;
34136;SDS011;20414;50.860;4.382;2022-09-12T13:07:41;0.63;;;0.63;;
34136;SDS011;20414;50.860;4.382;2022-09-12T13:10:18;0.50;;;0.50;;
34136;SDS011;20414;50.860;4.382;2022-09-12T13:12:48;0.93;;;0.57;;
34136;SDS011;20414;50.860;4.382;2022-09-12T13:18:00;1.13;;;0.50;;
34136;SDS011;20414;50.860;4.382;2022-09-12T13:20:53;0.65;;;0.50;;
34136;SDS011;20414;50.860;4.382;2022-09-12T13:23:37;0.52;;;0.43;;
34136;SDS011;20414;50.860;4.382;2022-09-12T13:26:09;0.60;;;0.52;;
34136;SDS011;20414;50.860;4.382;2022-09-12T13:28:36;0.60;;;0.50;;
34136;SDS011;20414;50.860;4.382;2022-09-12T13:31:07;0.65;;;0.65;;
34136;SDS011;20414;50.860;4.382;2022-09-12T13:33:54;0.70;;;0.65;;
34136;SDS011;20414;50.860;4.382;2022-09-12T13:39:17;0.60;;;0.60;;
34136;SDS011;20414;50.860;4.382;2022-09-12T13:44:48;0.50;;;0.50;;
34136;SDS011;20414;50.860;4.382;2022-09-12T13:47:41;0.75;;;0.60;;
34136;SDS011;20414;50.860;4.382;2022-09-12T13:50:30;0.57;;;0.57;;
34136;SDS011;20414;50.860;4.382;2022-09-12T13:53:30;0.30;;;0.30;;
34136;SDS011;20414;50.860;4.382;2022-09-12T13:56:04;0.57;;;0.57;;
34136;SDS011;20414;50.860;4.382;2022-09-12T13:58:30;0.45;;;0.45;;
34136;SDS011;20414;50.860;4.382;2022-09-12T14:00:59;0.70;;;0.50;;
34136;SDS011;20414;50.860;4.382;2022-09-12T14:03:30;0.57;;;0.57;;
34136;SDS011;20414;50.860;4.382;2022-09-12T14:06:22;0.50;;;0.50;;
34136;SDS011;20414;50.860;4.382;2022-09-12T14:08:49;0.50;;;0.50;;
34136;SDS011;20414;50.860;4.382;2022-09-12T14:11:25;0.50;;;0.50;;
34136;SDS011;20414;50.860;4.382;2022-09-12T14:13:52;0.50;;;0.50;;
34136;SDS011;20414;50.860;4.382;2022-09-12T14:16:38;0.63;;;0.50;;
34136;SDS011;20414;50.860;4.382;2022-09-12T14:19:04;0.73;;;0.50;;
34136;SDS011;20414;50.860;4.382;2022-09-12T14:21:34;0.88;;;0.68;;
34136;SDS011;20414;50.860;4.382;2022-09-12T14:24:00;0.70;;;0.60;;
34136;SDS011;20414;50.860;4.382;2022-09-12T14:26:28;0.50;;;0.50;;
34136;SDS011;20414;50.860;4.382;2022-09-12T14:28:58;0.52;;;0.52;;
34136;SDS011;20414;50.860;4.382;2022-09-12T14:31:29;0.50;;;0.50;;
34136;SDS011;20414;50.860;4.382;2022-09-12T14:34:17;0.70;;;0.43;;
34136;SDS011;20414;50.860;4.382;2022-09-12T14:36:49;0.95;;;0.60;;
34136;SDS011;20414;50.860;4.382;2022-09-12T14:39:20;0.60;;;0.50;;
34136;SDS011;20414;50.860;4.382;2022-09-12T14:42:00;0.50;;;0.50;;
34136;SDS011;20414;50.860;4.382;2022-09-12T14:44:30;0.40;;;0.40;;
34136;SDS011;20414;50.860;4.382;2022-09-12T14:47:00;0.50;;;0.50;;
34136;SDS011;20414;50.860;4.382;2022-09-12T14:49:37;0.47;;;0.47;;
34136;SDS011;20414;50.860;4.382;2022-09-12T14:52:03;0.80;;;0.63;;
34136;SDS011;20414;50.860;4.382;2022-09-12T14:59:26;0.50;;;0.50;;
34136;SDS011;20414;50.860;4.382;2022-09-12T15:02:17;0.30;;;0.30;;
34136;SDS011;20414;50.860;4.382;2022-09-12T15:04:44;0.30;;;0.20;;
34136;SDS011;20414;50.860;4.382;2022-09-12T15:07:20;0.57;;;0.50;;
34136;SDS011;20414;50.860;4.382;2022-09-12T15:09:56;0.52;;;0.52;;
34136;SDS011;20414;50.860;4.382;2022-09-12T15:12:23;0.50;;;0.50;;
34136;SDS011;20414;50.860;4.382;2022-09-12T15:14:49;0.52;;;0.50;;
34136;SDS011;20414;50.860;4.382;2022-09-12T15:17:14;0.50;;;0.50;;
34136;SDS011;20414;50.860;4.382;2022-09-12T15:19:40;0.50;;;0.50;;
34136;SDS011;20414;50.860;4.382;2022-09-12T15:22:08;0.40;;;0.40;;
34136;SDS011;20414;50.860;4.382;2022-09-12T15:27:12;0.40;;;0.40;;
34136;SDS011;20414;50.860;4.382;2022-09-12T15:29:38;0.47;;;0.45;;
34136;SDS011;20414;50.860;4.382;2022-09-12T15:32:04;0.60;;;0.50;;
34136;SDS011;20414;50.860;4.382;2022-09-12T15:34:31;0.50;;;0.50;;
34136;SDS011;20414;50.860;4.382;2022-09-12T15:36:57;0.30;;;0.30;;
34136;SDS011;20414;50.860;4.382;2022-09-12T15:39:23;0.50;;;0.50;;
34136;SDS011;20414;50.860;4.382;2022-09-12T15:41:48;0.50;;;0.50;;
34136;SDS011;20414;50.860;4.382;2022-09-12T15:44:14;0.50;;;0.50;;
34136;SDS011;20414;50.860;4.382;2022-09-12T15:46:40;0.40;;;0.40;;
34136;SDS011;20414;50.860;4.382;2022-09-12T15:49:06;0.57;;;0.57;;
34136;SDS011;20414;50.860;4.382;2022-09-12T15:51:31;0.57;;;0.52;;
34136;SDS011;20414;50.860;4.382;2022-09-12T15:53:58;0.45;;;0.45;;
34136;SDS011;20414;50.860;4.382;2022-09-12T15:56:26;0.50;;;0.50;;
34136;SDS011;20414;50.860;4.382;2022-09-12T15:58:51;0.50;;;0.47;;
34136;SDS011;20414;50.860;4.382;2022-09-12T16:01:17;0.38;;;0.38;;
34136;SDS011;20414;50.860;4.382;2022-09-12T16:03:46;0.45;;;0.45;;
34136;SDS011;20414;50.860;4.382;2022-09-12T16:06:12;0.45;;;0.45;;
34136;SDS011;20414;50.860;4.382;2022-09-12T16:08:39;0.43;;;0.40;;
34136;SDS011;20414;50.860;4.382;2022-09-12T16:11:11;0.63;;;0.50;;
34136;SDS011;20414;50.860;4.382;2022-09-12T16:13:42;0.50;;;0.40;;
34136;SDS011;20414;50.860;4.382;2022-09-12T16:16:08;0.70;;;0.40;;
34136;SDS011;20414;50.860;4.382;2022-09-12T16:18:34;0.40;;;0.40;;
34136;SDS011;20414;50.860;4.382;2022-09-12T16:20:59;0.43;;;0.43;;
34136;SDS011;20414;50.860;4.382;2022-09-12T16:23:25;0.60;;;0.50;;
34136;SDS011;20414;50.860;4.382;2022-09-12T16:25:57;0.40;;;0.40;;
34136;SDS011;20414;50.860;4.382;2022-09-12T16:28:24;0.50;;;0.50;;
34136;SDS011;20414;50.860;4.382;2022-09-12T16:30:57;0.30;;;0.30;;
34136;SDS011;20414;50.860;4.382;2022-09-12T16:33:30;0.40;;;0.40;;
34136;SDS011;20414;50.860;4.382;2022-09-12T16:36:00;0.40;;;0.40;;
34136;SDS011;20414;50.860;4.382;2022-09-12T16:38:27;0.40;;;0.40;;
34136;SDS011;20414;50.860;4.382;2022-09-12T16:41:00;0.50;;;0.50;;
34136;SDS011;20414;50.860;4.382;2022-09-12T16:43:28;0.47;;;0.40;;
34136;SDS011;20414;50.860;4.382;2022-09-12T16:46:01;0.93;;;0.40;;
34136;SDS011;20414;50.860;4.382;2022-09-12T16:48:27;0.60;;;0.50;;
34136;SDS011;20414;50.860;4.382;2022-09-12T16:50:56;0.45;;;0.40;;
34136;SDS011;20414;50.860;4.382;2022-09-12T16:53:23;0.40;;;0.40;;
34136;SDS011;20414;50.860;4.382;2022-09-12T16:55:49;0.40;;;0.40;;
34136;SDS011;20414;50.860;4.382;2022-09-12T16:58:15;0.75;;;0.40;;
34136;SDS011;20414;50.860;4.382;2022-09-12T17:00:41;0.50;;;0.50;;
34136;SDS011;20414;50.860;4.382;2022-09-12T17:03:06;0.65;;;0.40;;
34136;SDS011;20414;50.860;4.382;2022-09-12T17:05:33;0.40;;;0.40;;
34136;SDS011;20414;50.860;4.382;2022-09-12T17:07:59;0.40;;;0.40;;
34136;SDS011;20414;50.860;4.382;2022-09-12T17:10:25;0.50;;;0.50;;
34136;SDS011;20414;50.860;4.382;2022-09-12T17:12:52;0.45;;;0.30;;
34136;SDS011;20414;50.860;4.382;2022-09-12T17:15:17;0.50;;;0.35;;
34136;SDS011;20414;50.860;4.382;2022-09-12T17:17:44;0.32;;;0.32;;
34136;SDS011;20414;50.860;4.382;2022-09-12T17:20:10;0.30;;;0.30;;
34136;SDS011;20414;50.860;4.382;2022-09-12T17:22:36;0.50;;;0.30;;
34136;SDS011;20414;50.860;4.382;2022-09-12T17:25:01;0.30;;;0.30;;
34136;SDS011;20414;50.860;4.382;2022-09-12T17:27:27;0.47;;;0.40;;
34136;SDS011;20414;50.860;4.382;2022-09-12T17:29:52;0.40;;;0.40;;
34136;SDS011;20414;50.860;4.382;2022-09-12T17:32:18;0.30;;;0.30;;
34136;SDS011;20414;50.860;4.382;2022-09-12T17:34:44;0.30;;;0.30;;
34136;SDS011;20414;50.860;4.382;2022-09-12T17:37:09;0.65;;;0.40;;
34136;SDS011;20414;50.860;4.382;2022-09-12T17:39:35;0.30;;;0.30;;
34136;SDS011;20414;50.860;4.382;2022-09-12T17:42:01;0.38;;;0.38;;